Station History

Weather Underground - logo

Station Historical Data
Daily Summary for February 16, 2018 Units:  Metric    English   Both
« Previous Day
Next Day »
Daily Weekly Monthly Yearly Custom
  High: Low: Average:
Temperature: 19.3 °C 1.8 °C 10 °C
Dew Point: 6.5 °C -0.1 °C 2.8 °C
Humidity: 91 % 32 % 65 %
Wind Speed: 9.3 km/h 0 km/h 1 km/h
Wind Gust: 9.3 km/h - -
Wind:- - WSW
Pressure: 1027 hPa 1020.5 hPa -
Precipitation: 0 mm    
Historical Graphs
 
 
Tabular Data for February 16, 2018
Time Temperature Dew Point Pressure Wind Wind Speed Wind Gust Humidity Rainfall Rate (Hourly)
00:01 5.1 °C 2.6 °C 1026.6 hPa Calm     84 % 0 mm
00:06 5.1 °C 2.4 °C 1026.6 hPa Calm     83 % 0 mm
00:11 5.2 °C 2.6 °C 1026.6 hPa Calm     83 % 0 mm
00:16 5.3 °C 2.6 °C 1026.6 hPa Calm     83 % 0 mm
00:21 5.3 °C 2.5 °C 1026.6 hPa Calm     82 % 0 mm
00:26 5.2 °C 2.4 °C 1026.6 hPa Calm     82 % 0 mm
00:31 5.1 °C 2.4 °C 1026.6 hPa Calm     83 % 0 mm
00:36 5.2 °C 2.5 °C 1026.6 hPa Calm     83 % 0 mm
00:41 5.4 °C 2.7 °C 1026.3 hPa Calm     83 % 0 mm
00:46 5.3 °C 2.3 °C 1026.6 hPa Calm     81 % 0 mm
00:51 5.2 °C 2.3 °C 1026.3 hPa Calm     82 % 0 mm
00:56 5.2 °C 2.5 °C 1026.3 hPa Calm     83 % 0 mm
01:01 4.9 °C 2.1 °C 1026.3 hPa Calm     82 % 0 mm
01:06 4.9 °C 2.2 °C 1026 hPa Calm     83 % 0 mm
01:11 5.1 °C 2.2 °C 1026 hPa Calm     82 % 0 mm
01:16 5.2 °C 2.3 °C 1026 hPa Calm     82 % 0 mm
01:21 5.1 °C 2.3 °C 1026 hPa Calm     82 % 0 mm
01:26 5.1 °C 2.3 °C 1026 hPa Calm     82 % 0 mm
01:31 4.9 °C 2.1 °C 1026 hPa Calm     82 % 0 mm
01:36 4.7 °C 2.1 °C 1026 hPa Calm     83 % 0 mm
01:41 4.7 °C 2.2 °C 1025.6 hPa Calm     84 % 0 mm
01:46 4.7 °C 2.1 °C 1025.6 hPa Calm     83 % 0 mm
01:51 4.7 °C 1.8 °C 1025.6 hPa Calm     82 % 0 mm
01:56 4.4 °C 2 °C 1025.6 hPa Calm     84 % 0 mm
02:01 4.3 °C 1.8 °C 1025.3 hPa Calm     84 % 0 mm
02:06 4.2 °C 1.7 °C 1025.3 hPa South 7.4 km/h   84 % 0 mm
02:11 4.1 °C 1.8 °C 1025.3 hPa Calm     85 % 0 mm
02:16 3.9 °C 1.7 °C 1025.3 hPa Calm     85 % 0 mm
02:21 3.7 °C 1.1 °C 1025.3 hPa Calm     83 % 0 mm
02:26 3.4 °C 0.9 °C 1025.3 hPa Calm     84 % 0 mm
02:31 3.2 °C 0.9 °C 1025.3 hPa Calm     85 % 0 mm
02:37 3.1 °C 0.8 °C 1025.3 hPa Calm     85 % 0 mm
02:42 2.8 °C 0.6 °C 1025.3 hPa Calm     85 % 0 mm
02:47 2.8 °C 0.7 °C 1025.3 hPa Calm     86 % 0 mm
02:52 2.7 °C 0.8 °C 1025.3 hPa Calm     87 % 0 mm
02:57 2.9 °C 1.1 °C 1025.3 hPa Calm     88 % 0 mm
03:02 3 °C 1.2 °C 1025.3 hPa Calm     88 % 0 mm
03:07 3.1 °C 1.2 °C 1025.3 hPa Calm     87 % 0 mm
03:12 3.3 °C 1.3 °C 1025.3 hPa Calm     87 % 0 mm
03:17 3.4 °C 1.3 °C 1025.3 hPa Calm     86 % 0 mm
03:22 3.5 °C 1.4 °C 1025.3 hPa Calm     86 % 0 mm
03:27 3.4 °C 1.1 °C 1025.3 hPa Calm     85 % 0 mm
03:32 3.3 °C 1.2 °C 1025.3 hPa Calm     86 % 0 mm
03:37 3.2 °C 1.1 °C 1025.3 hPa Calm     86 % 0 mm
03:42 3.3 °C 1.3 °C 1025.3 hPa Calm     87 % 0 mm
03:47 3.2 °C 1.3 °C 1025.3 hPa Calm     87 % 0 mm
03:52 3.3 °C 1.2 °C 1025.3 hPa Calm     86 % 0 mm
03:57 3.2 °C 1.1 °C 1024.9 hPa Calm     86 % 0 mm
04:02 3.1 °C 1 °C 1024.9 hPa Calm     86 % 0 mm
04:07 2.9 °C 0.8 °C 1024.9 hPa Calm     86 % 0 mm
04:12 2.8 °C 0.7 °C 1024.9 hPa Calm     86 % 0 mm
04:17 2.7 °C 0.8 °C 1024.9 hPa Calm     87 % 0 mm
04:22 2.8 °C 1 °C 1024.9 hPa Calm     88 % 0 mm
04:27 2.9 °C 1.1 °C 1024.9 hPa Calm     88 % 0 mm
04:32 2.9 °C 1 °C 1024.9 hPa Calm     87 % 0 mm
04:37 3.1 °C 1.1 °C 1024.9 hPa Calm     87 % 0 mm
04:42 3.1 °C 1.3 °C 1024.9 hPa Calm     88 % 0 mm
04:47 3.2 °C 1.4 °C 1024.9 hPa Calm     88 % 0 mm
04:52 3.2 °C 1.4 °C 1024.9 hPa Calm     88 % 0 mm
04:57 3.1 °C 1.3 °C 1024.9 hPa Calm     88 % 0 mm
05:02 3 °C 1.2 °C 1024.9 hPa Calm   0.3 km/h 88 % 0 mm
05:07 2.5 °C 0.2 °C 1024.9 hPa Calm     85 % 0 mm
05:12 2.1 °C -0.1 °C 1024.9 hPa Calm     86 % 0 mm
05:17 1.9 °C -0.1 °C 1024.9 hPa Calm     87 % 0 mm
05:22 1.8 °C 0 °C 1024.9 hPa Calm     88 % 0 mm
05:27 1.9 °C 0.3 °C 1024.9 hPa Calm     89 % 0 mm
05:32 1.9 °C 0.3 °C 1024.9 hPa Calm     89 % 0 mm
05:37 2 °C 0.4 °C 1024.9 hPa Calm     89 % 0 mm
05:42 1.9 °C 0.5 °C 1024.9 hPa Calm     90 % 0 mm
05:47 1.9 °C 0.5 °C 1024.9 hPa Calm     90 % 0 mm
05:52 2.1 °C 0.6 °C 1025.3 hPa Calm     90 % 0 mm
05:57 2.2 °C 0.7 °C 1025.3 hPa Calm     90 % 0 mm
06:02 2.2 °C 0.8 °C 1025.3 hPa Calm     90 % 0 mm
06:07 2.2 °C 0.8 °C 1025.3 hPa Calm     90 % 0 mm
06:12 2.2 °C 0.8 °C 1025.3 hPa Calm     90 % 0 mm
06:17 2.2 °C 0.7 °C 1025.3 hPa Calm     90 % 0 mm
06:22 2.2 °C 0.7 °C 1025.3 hPa Calm     90 % 0 mm
06:27 2.1 °C 0.7 °C 1025.3 hPa Calm     90 % 0 mm
06:32 2.1 °C 0.6 °C 1025.3 hPa Calm     90 % 0 mm
06:37 2.2 °C 0.7 °C 1025.3 hPa Calm     90 % 0 mm
06:42 2.3 °C 0.8 °C 1025.3 hPa Calm     90 % 0 mm
06:47 2.3 °C 0.8 °C 1025.6 hPa Calm     90 % 0 mm
06:52 2.4 °C 0.9 °C 1025.6 hPa Calm     90 % 0 mm
06:57 2.3 °C 0.8 °C 1025.6 hPa Calm     90 % 0 mm
07:02 2.3 °C 0.8 °C 1025.6 hPa Calm     90 % 0 mm
07:07 2.3 °C 0.8 °C 1025.6 hPa Calm     90 % 0 mm
07:12 2.4 °C 0.9 °C 1025.6 hPa Calm     90 % 0 mm
07:17 2.6 °C 1.1 °C 1025.6 hPa Calm     90 % 0 mm
07:22 2.7 °C 1.2 °C 1026 hPa Calm     90 % 0 mm
07:28 2.8 °C 1.5 °C 1026 hPa Calm     91 % 0 mm
07:33 3.1 °C 1.7 °C 1026 hPa Calm     91 % 0 mm
07:38 3.4 °C 2.1 °C 1026 hPa Calm     91 % 0 mm
07:43 3.8 °C 2.4 °C 1026 hPa Calm     91 % 0 mm
07:48 4.4 °C 3.1 °C 1026.3 hPa Calm     91 % 0 mm
07:53 5 °C 3.2 °C 1026.3 hPa Calm     88 % 0 mm
07:58 5.6 °C 3.4 °C 1026.3 hPa Calm     86 % 0 mm
08:03 6.3 °C 3.8 °C 1026.3 hPa Calm     84 % 0 mm
08:08 6.8 °C 4 °C 1026.6 hPa Calm     82 % 0 mm
08:13 7.5 °C 3.9 °C 1026.6 hPa Calm     78 % 0 mm
08:18 8.1 °C 3.9 °C 1026.6 hPa Calm     75 % 0 mm
08:23 8.4 °C 3.9 °C 1026.6 hPa Calm     73 % 0 mm
08:28 8.8 °C 4 °C 1026.6 hPa Calm     72 % 0 mm
08:33 9.1 °C 3.9 °C 1026.6 hPa Calm     70 % 0 mm
08:38 9.5 °C 4.1 °C 1026.6 hPa Calm     69 % 0 mm
08:43 9.8 °C 4.2 °C 1027 hPa Calm     68 % 0 mm
08:48 10.2 °C 4.4 °C 1026.6 hPa Calm     67 % 0 mm
08:53 10.8 °C 4.5 °C 1026.6 hPa ESE 1.9 km/h 1.9 km/h 65 % 0 mm
08:58 11.1 °C 4.3 °C 1026.6 hPa SSE 1.9 km/h   63 % 0 mm
09:03 11.6 °C 4.5 °C 1026.3 hPa Calm     62 % 0 mm
09:08 11.8 °C 4.3 °C 1026.3 hPa ESE 1.9 km/h   60 % 0 mm
09:13 11.8 °C 4.3 °C 1026.3 hPa Calm     60 % 0 mm
09:18 12.1 °C 4.6 °C 1026.3 hPa Calm     60 % 0 mm
09:23 12.4 °C 4.3 °C 1026.3 hPa Calm     58 % 0 mm
09:28 12.4 °C 4.4 °C 1026.3 hPa Calm     58 % 0 mm
09:33 12.6 °C 4.3 °C 1026 hPa ENE 3.7 km/h 3.7 km/h 57 % 0 mm
09:38 12.7 °C 4.4 °C 1026 hPa SSE 3.7 km/h   57 % 0 mm
09:43 13.1 °C 4.3 °C 1026 hPa Calm     55 % 0 mm
09:48 13.6 °C 4.7 °C 1026 hPa SSE 1.9 km/h 1.9 km/h 55 % 0 mm
09:53 13.6 °C 4.4 °C 1025.6 hPa SW 1.9 km/h   54 % 0 mm
09:58 13.7 °C 4.8 °C 1025.6 hPa ESE 1.9 km/h   55 % 0 mm
10:03 13.8 °C 4.4 °C 1025.6 hPa Calm     53 % 0 mm
10:08 13.8 °C 4.3 °C 1025.6 hPa NW 1.9 km/h 1.9 km/h 53 % 0 mm
10:13 13.9 °C 4.5 °C 1025.3 hPa ESE 1.9 km/h   53 % 0 mm
10:18 14 °C 4.3 °C 1025.3 hPa NNW 3.7 km/h 3.7 km/h 52 % 0 mm
10:23 14.1 °C 4.7 °C 1025.3 hPa WNW 1.9 km/h 1.9 km/h 53 % 0 mm
10:28 14.4 °C 4.7 °C 1024.9 hPa Calm     52 % 0 mm
10:33 14.8 °C 4.7 °C 1024.9 hPa West 4.8 km/h 4.8 km/h 51 % 0 mm
10:38 14.6 °C 4.8 °C 1024.9 hPa NW 1.9 km/h 1.9 km/h 52 % 0 mm
10:43 14.5 °C 4.8 °C 1024.9 hPa NW 1.9 km/h 1.9 km/h 52 % 0 mm
10:48 14.6 °C 4.8 °C 1024.9 hPa WNW 1.9 km/h 1.9 km/h 52 % 0 mm
10:53 14.9 °C 5.4 °C 1024.9 hPa SSE 1.6 km/h 1.6 km/h 53 % 0 mm
10:58 15.3 °C 6 °C 1024.6 hPa SSE 1.9 km/h   54 % 0 mm
11:03 15.6 °C 5.2 °C 1024.6 hPa NW 1.9 km/h   50 % 0 mm
11:08 15.6 °C 4.9 °C 1024.6 hPa NW 3.7 km/h 3.7 km/h 49 % 0 mm
11:13 15.6 °C 5.5 °C 1024.3 hPa Calm     51 % 0 mm
11:18 15.9 °C 5.8 °C 1024.3 hPa SSW 5.6 km/h   51 % 0 mm
11:23 16.1 °C 6.2 °C 1024.3 hPa WNW 1.6 km/h 1.6 km/h 52 % 0 mm
11:28 16.3 °C 5.2 °C 1024.3 hPa West 5.6 km/h 5.6 km/h 48 % 0 mm
11:33 16.4 °C 6.5 °C 1024.3 hPa South 1.9 km/h   52 % 0 mm
11:38 16.8 °C 5.7 °C 1024.3 hPa NW 3.7 km/h 3.7 km/h 48 % 0 mm
11:43 16.6 °C 5.2 °C 1024.3 hPa NW 5.6 km/h 5.6 km/h 47 % 0 mm
11:48 16.6 °C 5.2 °C 1023.9 hPa WNW 1.9 km/h   47 % 0 mm
11:54 16.6 °C 5.5 °C 1023.9 hPa NW 1.9 km/h 1.9 km/h 48 % 0 mm
11:59 16.7 °C 5.3 °C 1023.9 hPa NW 1.9 km/h 1.9 km/h 47 % 0 mm
12:04 16.8 °C 5.4 °C 1023.9 hPa NW 1.9 km/h 1.9 km/h 47 % 0 mm
12:09 17.1 °C 4.4 °C 1023.6 hPa SW 3.7 km/h 3.7 km/h 43 % 0 mm
12:14 17.2 °C 4.8 °C 1023.6 hPa NNW 1.9 km/h 1.9 km/h 44 % 0 mm
12:19 17.4 °C 4.7 °C 1023.2 hPa NNE 1.9 km/h 1.9 km/h 43 % 0 mm
12:24 17.6 °C 5.2 °C 1023.2 hPa NW 1.9 km/h 1.9 km/h 44 % 0 mm
12:29 17.4 °C 4.4 °C 1023.2 hPa WNW 3.7 km/h 3.7 km/h 42 % 0 mm
12:34 17.4 °C 4.3 °C 1022.9 hPa NNW 3.7 km/h 3.7 km/h 42 % 0 mm
12:39 17.6 °C 4.5 °C 1022.6 hPa West 1.9 km/h 1.9 km/h 42 % 0 mm
12:44 17.7 °C 4.3 °C 1022.6 hPa NNE 1.9 km/h 1.9 km/h 41 % 0 mm
12:49 18 °C 5.2 °C 1022.6 hPa SSW 1.6 km/h   43 % 0 mm
12:54 18.1 °C 5 °C 1022.6 hPa NW 5.6 km/h 5.6 km/h 42 % 0 mm
12:59 18.2 °C 5.4 °C 1022.2 hPa SSW 1.9 km/h 1.9 km/h 43 % 0 mm
13:04 18.1 °C 4.6 °C 1022.2 hPa Calm     41 % 0 mm
13:09 18.3 °C 4.4 °C 1021.9 hPa WNW 3.7 km/h 3.7 km/h 40 % 0 mm
13:14 18.2 °C 5.1 °C 1021.9 hPa NW 3.7 km/h 3.7 km/h 42 % 0 mm
13:19 18.2 °C 4.7 °C 1021.9 hPa NW 5.6 km/h 5.6 km/h 41 % 0 mm
13:24 18.1 °C 4.2 °C 1021.6 hPa WSW 1.9 km/h 1.9 km/h 40 % 0 mm
13:29 18.3 °C 4.8 °C 1021.6 hPa Calm     41 % 0 mm
13:34 18.5 °C 4.3 °C 1021.6 hPa North 1.9 km/h 1.9 km/h 39 % 0 mm
13:39 18.8 °C 4.9 °C 1021.6 hPa NW 1.9 km/h 1.9 km/h 40 % 0 mm
13:44 18.8 °C 4.5 °C 1021.2 hPa North 1.9 km/h 1.9 km/h 39 % 0 mm
13:49 19 °C 4.3 °C 1021.2 hPa NW 1.9 km/h 1.9 km/h 38 % 0 mm
13:54 19 °C 4.7 °C 1021.2 hPa NW 3.7 km/h 3.7 km/h 39 % 0 mm
13:59 18.9 °C 4.6 °C 1021.2 hPa SW 1.9 km/h 1.9 km/h 39 % 0 mm
14:04 19.1 °C 4.8 °C 1021.2 hPa SSE 3.2 km/h 3.2 km/h 39 % 0 mm
14:09 19.3 °C 4.3 °C 1021.2 hPa NW 3.7 km/h 3.7 km/h 37 % 0 mm
14:14 19.1 °C 3.7 °C 1021.2 hPa North 3.7 km/h 3.7 km/h 36 % 0 mm
14:19 18.9 °C 4.3 °C 1020.9 hPa North 1.9 km/h 1.9 km/h 38 % 0 mm
14:24 19.1 °C 3.7 °C 1020.9 hPa Calm     36 % 0 mm
14:29 19.1 °C 4.1 °C 1020.9 hPa NW 5.6 km/h 5.6 km/h 37 % 0 mm
14:34 19 °C 3.6 °C 1020.9 hPa NW 5.6 km/h 5.6 km/h 36 % 0 mm
14:39 19.1 °C 3.7 °C 1020.9 hPa West 5.6 km/h 5.6 km/h 36 % 0 mm
14:44 19.1 °C 3.6 °C 1020.9 hPa NNE 3.7 km/h 3.7 km/h 36 % 0 mm
14:49 18.9 °C 3.5 °C 1020.9 hPa NW 1.9 km/h 1.9 km/h 36 % 0 mm
14:54 19 °C 3.6 °C 1020.9 hPa South 1.9 km/h 1.9 km/h 36 % 0 mm
14:59 19.1 °C 3.7 °C 1020.9 hPa NW 3.7 km/h 3.7 km/h 36 % 0 mm
15:04 19.1 °C 3.3 °C 1020.9 hPa NW 3.2 km/h 3.2 km/h 35 % 0 mm
15:09 19.1 °C 3.2 °C 1020.9 hPa NW 1.9 km/h 1.9 km/h 35 % 0 mm
15:14 19 °C 3.2 °C 1020.9 hPa NW 5.6 km/h 5.6 km/h 35 % 0 mm
15:21 18.9 °C 3.5 °C 1020.9 hPa NW 3.2 km/h 3.2 km/h 36 % 0 mm
15:26 18.9 °C 1.9 °C 1020.9 hPa NW 4.8 km/h 4.8 km/h 32 % 0 mm
15:31 18.8 °C 2.6 °C 1020.9 hPa NW 4.8 km/h 4.8 km/h 34 % 0 mm
15:36 18.8 °C 2.6 °C 1020.9 hPa NW 8 km/h 8 km/h 34 % 0 mm
15:41 18.6 °C 2 °C 1021.2 hPa WNW 5.6 km/h 5.6 km/h 33 % 0 mm
15:46 18.5 °C 2.7 °C 1021.2 hPa NNW 9.3 km/h 9.3 km/h 35 % 0 mm
15:51 18.4 °C 2.3 °C 1021.2 hPa WNW 7.4 km/h 7.4 km/h 34 % 0 mm
15:56 18.5 °C 2.3 °C 1021.2 hPa WNW 5.6 km/h 5.6 km/h 34 % 0 mm
16:01 18.4 °C 2.3 °C 1021.2 hPa WNW 3.7 km/h 3.7 km/h 34 % 0 mm
16:06 18.4 °C 1.9 °C 1021.2 hPa NW 5.6 km/h 5.6 km/h 33 % 0 mm
16:07 18.4 °C 2.3 °C 1021.2 hPa WNW 8 km/h 8 km/h 34 % 0 mm
16:12 18.4 °C 1.8 °C 1021.2 hPa WNW 5.6 km/h 5.6 km/h 33 % 0 mm
16:17 18.3 °C 1.3 °C 1021.2 hPa NW 3.2 km/h 3.2 km/h 32 % 0 mm
16:22 18.3 °C 1.7 °C 1021.2 hPa NW 3.7 km/h 3.7 km/h 33 % 0 mm
16:29 18.1 °C 1.6 °C 1021.2 hPa NW 3.7 km/h 3.7 km/h 33 % 0 mm
16:34 18.1 °C 1.5 °C 1020.9 hPa WNW 3.7 km/h 3.7 km/h 33 % 0 mm
16:39 17.9 °C 1.4 °C 1020.9 hPa Calm     33 % 0 mm
16:44 17.8 °C 1.7 °C 1020.9 hPa Calm     34 % 0 mm
16:49 17.8 °C 1.7 °C 1020.9 hPa West 1.9 km/h   34 % 0 mm
16:54 17.7 °C 1.6 °C 1020.9 hPa SW 1.9 km/h 1.9 km/h 34 % 0 mm
16:59 17.6 °C 1.9 °C 1020.9 hPa Calm   0.2 km/h 35 % 0 mm
17:04 17.5 °C 1.8 °C 1020.9 hPa Calm     35 % 0 mm
17:09 17.4 °C 2.2 °C 1020.9 hPa Calm     36 % 0 mm
17:14 17.1 °C 2.3 °C 1020.5 hPa Calm     37 % 0 mm
17:19 16.8 °C 2 °C 1020.9 hPa Calm     37 % 0 mm
17:24 16.4 °C 2.4 °C 1020.5 hPa Calm     39 % 0 mm
17:29 16.1 °C 2.4 °C 1020.9 hPa Calm     40 % 0 mm
17:34 15.6 °C 3.4 °C 1020.9 hPa Calm     44 % 0 mm
17:42 15.1 °C 2.9 °C 1020.9 hPa Calm     44 % 0 mm
17:47 14.7 °C 3.2 °C 1020.9 hPa Calm     46 % 0 mm
17:52 14.4 °C 3.5 °C 1020.9 hPa Calm     48 % 0 mm
17:59 13.8 °C 4.1 °C 1020.9 hPa Calm     52 % 0 mm
18:04 13.4 °C 4.3 °C 1020.9 hPa Calm     54 % 0 mm
18:09 13.1 °C 3.9 °C 1020.9 hPa Calm     54 % 0 mm
18:14 12.9 °C 3.6 °C 1020.9 hPa Calm     53 % 0 mm
18:19 12.7 °C 3.7 °C 1020.9 hPa Calm     54 % 0 mm
18:24 12.4 °C 3.3 °C 1020.9 hPa Calm     54 % 0 mm
18:29 12.2 °C 3.7 °C 1020.9 hPa Calm     56 % 0 mm
18:34 11.9 °C 3.6 °C 1020.9 hPa Calm     57 % 0 mm
18:39 11.7 °C 3.9 °C 1020.9 hPa Calm     59 % 0 mm
18:44 11.8 °C 4.3 °C 1020.9 hPa Calm     60 % 0 mm
18:50 11.7 °C 4.2 °C 1020.9 hPa Calm     60 % 0 mm
18:55 11.6 °C 3.8 °C 1020.9 hPa Calm     59 % 0 mm
19:00 11.6 °C 3.6 °C 1020.9 hPa Calm     58 % 0 mm
19:05 11.6 °C 3.6 °C 1021.2 hPa Calm     58 % 0 mm
19:10 11.4 °C 3.2 °C 1021.2 hPa Calm     57 % 0 mm
19:15 11.2 °C 3.7 °C 1021.2 hPa Calm     60 % 0 mm
19:20 11 °C 3.5 °C 1021.2 hPa Calm     60 % 0 mm
19:25 10.9 °C 3.5 °C 1021.6 hPa Calm     60 % 0 mm
19:30 10.8 °C 3.4 °C 1021.6 hPa Calm     60 % 0 mm
19:35 11 °C 3.3 °C 1021.6 hPa Calm     59 % 0 mm
19:40 11.3 °C 3.1 °C 1021.6 hPa Calm     57 % 0 mm
19:45 11.3 °C 3.6 °C 1021.6 hPa Calm     59 % 0 mm
19:50 11.1 °C 3.6 °C 1021.6 hPa Calm     60 % 0 mm
19:55 10.9 °C 3.4 °C 1021.6 hPa Calm     60 % 0 mm
20:00 10.6 °C 3.1 °C 1021.6 hPa Calm     60 % 0 mm
20:05 10.4 °C 3.2 °C 1021.6 hPa Calm     61 % 0 mm
20:10 10.3 °C 2.4 °C 1021.6 hPa Calm     58 % 0 mm
20:15 10.6 °C 2.9 °C 1021.6 hPa Calm     59 % 0 mm
20:20 10.4 °C 2.7 °C 1021.9 hPa Calm     59 % 0 mm
20:25 10.1 °C 2.6 °C 1021.9 hPa Calm     60 % 0 mm
20:30 9.8 °C 2.8 °C 1021.9 hPa Calm     62 % 0 mm
20:35 9.6 °C 2.9 °C 1021.9 hPa Calm     63 % 0 mm
20:40 9.5 °C 3 °C 1022.2 hPa Calm     64 % 0 mm
20:45 9.4 °C 2.9 °C 1022.2 hPa Calm     64 % 0 mm
20:50 9.3 °C 2.9 °C 1022.2 hPa Calm     64 % 0 mm
20:55 9.3 °C 3.1 °C 1022.2 hPa Calm     65 % 0 mm
21:00 9.1 °C 3.5 °C 1022.2 hPa Calm     68 % 0 mm
21:05 8.9 °C 3.1 °C 1022.2 hPa Calm     67 % 0 mm
21:10 8.7 °C 3.3 °C 1022.2 hPa Calm     69 % 0 mm
21:15 8.4 °C 3.5 °C 1022.2 hPa WNW 1.9 km/h 1.9 km/h 71 % 0 mm
21:20 7.8 °C 3.1 °C 1022.2 hPa Calm     72 % 0 mm
21:25 7.6 °C 3.1 °C 1022.2 hPa Calm     73 % 0 mm
21:30 7.7 °C 3.2 °C 1022.2 hPa Calm     73 % 0 mm
21:35 7.7 °C 3.2 °C 1022.2 hPa Calm     73 % 0 mm
21:40 7.7 °C 3.2 °C 1022.2 hPa Calm     73 % 0 mm
21:45 7.6 °C 3.1 °C 1022.2 hPa Calm     73 % 0 mm
21:50 7.6 °C 3.1 °C 1022.6 hPa Calm     73 % 0 mm
21:55 7.9 °C 3.2 °C 1022.6 hPa WNW 1.9 km/h   72 % 0 mm
22:00 8.1 °C 3.1 °C 1022.6 hPa Calm     71 % 0 mm
22:05 8 °C 3.1 °C 1022.2 hPa Calm     71 % 0 mm
22:10 7.8 °C 2.9 °C 1022.2 hPa Calm     71 % 0 mm
22:15 7.6 °C 2.9 °C 1022.2 hPa Calm     72 % 0 mm
22:20 7.1 °C 2.6 °C 1022.6 hPa Calm     73 % 0 mm
22:25 6.7 °C 2.6 °C 1022.6 hPa Calm     75 % 0 mm
22:30 6.5 °C 2.4 °C 1022.6 hPa Calm     75 % 0 mm
22:35 6.3 °C 2.6 °C 1022.6 hPa Calm     77 % 0 mm
22:40 6 °C 2.3 °C 1022.6 hPa Calm     77 % 0 mm
22:45 5.8 °C 2.4 °C 1022.9 hPa Calm     79 % 0 mm
22:50 5.8 °C 2.4 °C 1022.9 hPa Calm     79 % 0 mm
22:55 5.8 °C 2.4 °C 1022.9 hPa Calm     79 % 0 mm
23:00 5.8 °C 2.7 °C 1022.9 hPa Calm     80 % 0 mm
23:05 5.8 °C 2.6 °C 1022.9 hPa Calm     80 % 0 mm
23:10 5.6 °C 2.3 °C 1022.6 hPa Calm     79 % 0 mm
23:15 5.5 °C 2.3 °C 1022.6 hPa Calm     80 % 0 mm
23:20 5.4 °C 2.3 °C 1022.6 hPa Calm     80 % 0 mm
23:25 5.4 °C 2.4 °C 1022.6 hPa Calm     81 % 0 mm
23:30 5.4 °C 2.4 °C 1022.6 hPa Calm     81 % 0 mm
23:35 5.4 °C 2.4 °C 1022.9 hPa Calm     81 % 0 mm
23:40 5.4 °C 2.4 °C 1022.6 hPa Calm     81 % 0 mm
23:45 5.3 °C 2.2 °C 1022.6 hPa Calm     80 % 0 mm
23:50 5.2 °C 2.2 °C 1022.6 hPa Calm     81 % 0 mm
23:55 5.3 °C 2.3 °C 1022.6 hPa Calm     81 % 0 mm
Park Place, Exeter, Tulare County, California, USA
Compliments of Weather Underground - 2.75 mb